Time;durP1;ratioP1;P1;durP2;ratioP2;P2;SDS_P1;SDS_P2;PMS_P1;PMS_P2;Temp;Humidity;BMP_temperature;BMP_pressure;BME280_temperature;BME280_humidity;BME280_pressure;Samples;Min_cycle;Max_cycle;Signal;HPM_P1;HPM_P2
2022/03/28 00:00:56;;;;;;;12.55;8.60;;;;;;;;;;5022849;28;20241;-78
2022/03/28 00:03:23;;;;;;;9.20;7.57;;;;;;;;;;5029123;28;20223;-78
2022/03/28 00:05:50;;;;;;;11.05;8.00;;;;;;;;;;5027903;28;20192;-79
2022/03/28 00:08:19;;;;;;;11.02;8.25;;;;;;;;;;5029413;28;20207;-79
2022/03/28 00:10:46;;;;;;;10.05;8.68;;;;;;;;;;5028652;28;20187;-80
2022/03/28 00:13:13;;;;;;;12.40;8.55;;;;;;;;;;5032664;28;20674;-79
2022/03/28 00:15:40;;;;;;;13.32;9.30;;;;;;;;;;5029455;28;20188;-79
2022/03/28 00:18:09;;;;;;;14.98;10.02;;;;;;;;;;5030040;28;20192;-79
2022/03/28 00:20:37;;;;;;;12.35;9.38;;;;;;;;;;5033411;28;20196;-79
2022/03/28 00:23:04;;;;;;;11.20;8.50;;;;;;;;;;5021603;28;20218;-79
2022/03/28 00:25:33;;;;;;;12.40;8.10;;;;;;;;;;5030644;28;20236;-78
2022/03/28 00:28:00;;;;;;;13.65;10.18;;;;;;;;;;5031784;28;20475;-78
2022/03/28 00:30:27;;;;;;;12.23;8.55;;;;;;;;;;5027304;28;20554;-78
2022/03/28 00:32:54;;;;;;;12.55;7.85;;;;;;;;;;5029883;28;20211;-78
2022/03/28 00:35:22;;;;;;;10.43;8.00;;;;;;;;;;5029894;28;20257;-78
2022/03/28 00:37:49;;;;;;;12.75;9.43;;;;;;;;;;5028370;28;20196;-79
2022/03/28 00:40:17;;;;;;;10.85;8.82;;;;;;;;;;5024106;28;20194;-77
2022/03/28 00:42:45;;;;;;;13.65;8.90;;;;;;;;;;5032400;28;20713;-77
2022/03/28 00:45:12;;;;;;;13.27;9.43;;;;;;;;;;5026713;28;20208;-79
2022/03/28 00:47:39;;;;;;;10.68;8.35;;;;;;;;;;5030752;28;20701;-78
2022/03/28 00:50:07;;;;;;;14.15;8.60;;;;;;;;;;5033586;28;20199;-80
2022/03/28 00:52:34;;;;;;;13.50;8.73;;;;;;;;;;5034678;28;20199;-78
2022/03/28 00:55:02;;;;;;;11.43;8.38;;;;;;;;;;5026765;28;20195;-79
2022/03/28 00:57:29;;;;;;;12.68;9.20;;;;;;;;;;5029561;28;20620;-78
2022/03/28 00:59:57;;;;;;;12.25;7.45;;;;;;;;;;5026390;28;20669;-76
2022/03/28 01:02:24;;;;;;;11.02;8.40;;;;;;;;;;5018838;28;20216;-77
2022/03/28 01:04:51;;;;;;;12.93;8.93;;;;;;;;;;5029072;28;20188;-77
2022/03/28 01:07:19;;;;;;;10.55;7.78;;;;;;;;;;5030315;28;20208;-78
2022/03/28 01:09:46;;;;;;;12.85;7.88;;;;;;;;;;5028762;28;20192;-78
2022/03/28 01:12:13;;;;;;;11.90;7.80;;;;;;;;;;5032428;28;20232;-79
2022/03/28 01:14:41;;;;;;;10.40;7.40;;;;;;;;;;5024974;28;20650;-78
2022/03/28 01:19:55;;;;;;;11.15;7.30;;;;;;;;;;5031170;28;20218;-78
2022/03/28 01:22:23;;;;;;;9.32;7.82;;;;;;;;;;5027491;28;20219;-79
2022/03/28 01:24:51;;;;;;;9.95;7.80;;;;;;;;;;5028552;28;20211;-78
2022/03/28 01:27:18;;;;;;;13.73;8.90;;;;;;;;;;5029278;28;20214;-79
2022/03/28 01:29:45;;;;;;;8.80;7.80;;;;;;;;;;5019571;28;20208;-78
2022/03/28 01:32:12;;;;;;;12.18;8.05;;;;;;;;;;5028984;28;20677;-79
2022/03/28 01:34:39;;;;;;;11.35;8.10;;;;;;;;;;5032550;28;20681;-79
2022/03/28 01:37:06;;;;;;;10.85;8.75;;;;;;;;;;5027118;28;20192;-79
2022/03/28 01:39:35;;;;;;;13.55;9.98;;;;;;;;;;5026339;28;20195;-78
2022/03/28 01:42:02;;;;;;;14.50;8.10;;;;;;;;;;5028218;28;20199;-76
2022/03/28 01:44:29;;;;;;;12.70;8.45;;;;;;;;;;5030718;28;20579;-76
2022/03/28 01:46:59;;;;;;;11.25;8.15;;;;;;;;;;5027128;28;20202;-78
2022/03/28 01:49:26;;;;;;;11.85;8.45;;;;;;;;;;5031608;28;20657;-76
2022/03/28 01:51:53;;;;;;;16.17;8.90;;;;;;;;;;5027647;28;20199;-76
2022/03/28 01:54:20;;;;;;;10.13;7.72;;;;;;;;;;5022941;28;20192;-79
2022/03/28 01:56:48;;;;;;;14.60;9.82;;;;;;;;;;5026812;28;20195;-78
2022/03/28 01:59:15;;;;;;;14.13;8.95;;;;;;;;;;5030442;28;20187;-77
2022/03/28 02:01:43;;;;;;;12.50;9.20;;;;;;;;;;5026538;28;20640;-78
2022/03/28 02:04:10;;;;;;;9.88;7.60;;;;;;;;;;5027673;28;20215;-78
2022/03/28 02:06:37;;;;;;;10.63;7.28;;;;;;;;;;5031192;28;20207;-78
2022/03/28 02:09:04;;;;;;;12.90;7.72;;;;;;;;;;5029137;28;20195;-78
2022/03/28 02:11:31;;;;;;;13.05;8.50;;;;;;;;;;5031067;28;20222;-78
2022/03/28 02:14:00;;;;;;;16.50;10.02;;;;;;;;;;5030063;28;20191;-78
2022/03/28 02:16:27;;;;;;;10.23;8.93;;;;;;;;;;5025706;28;20220;-77
2022/03/28 02:18:54;;;;;;;11.77;8.38;;;;;;;;;;5029387;28;20207;-77
2022/03/28 02:21:21;;;;;;;14.65;9.35;;;;;;;;;;5019786;28;20199;-78
2022/03/28 02:23:48;;;;;;;13.48;9.93;;;;;;;;;;5030791;28;20254;-77
2022/03/28 02:26:15;;;;;;;13.15;9.65;;;;;;;;;;5027751;28;20202;-78
2022/03/28 02:28:43;;;;;;;13.65;9.60;;;;;;;;;;5027696;28;20189;-78
2022/03/28 02:31:11;;;;;;;12.05;9.00;;;;;;;;;;5025344;28;20200;-78
2022/03/28 02:33:38;;;;;;;11.98;7.32;;;;;;;;;;5023611;28;20218;-77
2022/03/28 02:36:06;;;;;;;16.15;10.50;;;;;;;;;;5025901;28;20621;-78
2022/03/28 02:38:33;;;;;;;13.02;9.43;;;;;;;;;;5019983;28;20204;-78
2022/03/28 02:41:00;;;;;;;12.88;9.25;;;;;;;;;;5026355;28;20195;-78
2022/03/28 02:43:27;;;;;;;15.75;11.48;;;;;;;;;;5029405;28;20250;-78
2022/03/28 02:45:54;;;;;;;12.48;9.63;;;;;;;;;;5023499;28;20202;-78
2022/03/28 02:48:22;;;;;;;12.60;10.13;;;;;;;;;;5014329;28;20192;-78
2022/03/28 02:50:50;;;;;;;14.63;10.30;;;;;;;;;;5023147;28;20210;-79
2022/03/28 02:53:17;;;;;;;15.50;9.13;;;;;;;;;;5026133;28;20702;-80
2022/03/28 02:55:47;;;;;;;15.40;9.55;;;;;;;;;;5017815;28;20490;-80
2022/03/28 02:58:14;;;;;;;12.80;9.52;;;;;;;;;;5022979;28;20183;-79
2022/03/28 03:00:42;;;;;;;15.05;10.98;;;;;;;;;;5024015;28;20241;-80
2022/03/28 03:03:09;;;;;;;18.60;10.55;;;;;;;;;;5027831;28;20244;-79
2022/03/28 03:05:37;;;;;;;11.95;9.18;;;;;;;;;;5027030;28;20243;-80
2022/03/28 03:08:04;;;;;;;14.32;9.30;;;;;;;;;;5013243;28;20195;-80
2022/03/28 03:10:33;;;;;;;12.02;8.18;;;;;;;;;;5025120;28;20199;-76
2022/03/28 03:13:00;;;;;;;14.77;10.52;;;;;;;;;;5028077;28;20202;-77
2022/03/28 03:15:27;;;;;;;14.55;10.00;;;;;;;;;;5026085;28;20193;-77
2022/03/28 03:17:54;;;;;;;16.27;10.27;;;;;;;;;;5028306;28;20191;-76
2022/03/28 03:20:21;;;;;;;18.02;10.05;;;;;;;;;;5022434;28;20199;-80
2022/03/28 03:22:49;;;;;;;15.13;10.38;;;;;;;;;;5030436;28;20218;-82
2022/03/28 03:25:16;;;;;;;13.32;9.68;;;;;;;;;;5026903;28;20222;-81
2022/03/28 03:27:44;;;;;;;15.43;8.95;;;;;;;;;;5027480;28;20195;-82
2022/03/28 03:30:11;;;;;;;13.25;9.23;;;;;;;;;;5024635;28;20195;-82
2022/03/28 03:32:39;;;;;;;15.18;9.73;;;;;;;;;;5030121;28;20679;-82
2022/03/28 03:35:07;;;;;;;14.45;8.50;;;;;;;;;;5028845;28;20194;-81
2022/03/28 03:37:34;;;;;;;12.38;8.30;;;;;;;;;;5026456;28;20206;-82
2022/03/28 03:40:03;;;;;;;14.00;10.32;;;;;;;;;;5028171;28;20191;-82
2022/03/28 03:42:31;;;;;;;13.48;9.90;;;;;;;;;;5026251;28;20207;-79
2022/03/28 03:44:58;;;;;;;13.52;8.65;;;;;;;;;;5022124;28;20250;-78
2022/03/28 03:47:25;;;;;;;12.95;9.55;;;;;;;;;;5032755;28;20199;-80
2022/03/28 03:49:52;;;;;;;14.35;9.45;;;;;;;;;;5036554;28;20199;-82
2022/03/28 03:52:19;;;;;;;13.20;10.05;;;;;;;;;;5035009;28;20211;-78
2022/03/28 03:54:46;;;;;;;14.70;9.43;;;;;;;;;;5021780;28;20207;-77
2022/03/28 03:57:15;;;;;;;14.70;10.55;;;;;;;;;;5034101;28;20223;-79
2022/03/28 03:59:42;;;;;;;12.70;10.05;;;;;;;;;;5033696;28;20204;-78
2022/03/28 04:02:09;;;;;;;13.80;9.40;;;;;;;;;;5031777;28;20187;-79
2022/03/28 04:04:36;;;;;;;15.30;10.00;;;;;;;;;;5034829;28;20705;-81
2022/03/28 04:07:04;;;;;;;12.50;9.10;;;;;;;;;;5048259;28;20194;-81
2022/03/28 04:09:31;;;;;;;14.70;9.60;;;;;;;;;;5028093;28;20203;-81
2022/03/28 04:11:58;;;;;;;12.80;9.95;;;;;;;;;;5033884;28;20199;-81
2022/03/28 04:14:26;;;;;;;11.27;8.65;;;;;;;;;;5033822;28;20207;-79
2022/03/28 04:16:53;;;;;;;16.33;9.43;;;;;;;;;;5034209;28;20195;-81
2022/03/28 04:19:20;;;;;;;15.75;10.20;;;;;;;;;;5037716;28;20199;-80
2022/03/28 04:21:48;;;;;;;15.13;11.02;;;;;;;;;;5035373;28;20211;-80
2022/03/28 04:24:15;;;;;;;13.85;9.43;;;;;;;;;;5035231;28;20713;-80
2022/03/28 04:26:42;;;;;;;14.93;11.00;;;;;;;;;;5032373;28;20673;-80
2022/03/28 04:29:10;;;;;;;15.30;9.77;;;;;;;;;;5032430;28;20198;-80
2022/03/28 04:31:40;;;;;;;11.90;9.60;;;;;;;;;;5024239;28;20200;-80
2022/03/28 04:34:09;;;;;;;16.08;11.02;;;;;;;;;;5029729;28;20654;-81
2022/03/28 04:36:37;;;;;;;16.45;10.68;;;;;;;;;;5030921;28;20202;-80
2022/03/28 04:39:04;;;;;;;12.30;9.02;;;;;;;;;;5032484;28;20254;-78
2022/03/28 04:41:31;;;;;;;13.13;8.50;;;;;;;;;;5032344;28;20222;-79
2022/03/28 04:43:58;;;;;;;14.98;10.85;;;;;;;;;;5035806;28;20215;-79
2022/03/28 04:46:25;;;;;;;13.48;9.90;;;;;;;;;;5029628;28;20592;-79
2022/03/28 04:48:54;;;;;;;15.18;10.77;;;;;;;;;;5026458;28;20200;-79
2022/03/28 04:51:21;;;;;;;14.48;9.68;;;;;;;;;;5029313;28;20207;-79
2022/03/28 04:53:48;;;;;;;13.50;9.85;;;;;;;;;;5035672;28;20653;-78
2022/03/28 04:56:16;;;;;;;14.55;9.82;;;;;;;;;;5029208;28;20662;-77
2022/03/28 04:58:43;;;;;;;15.45;9.40;;;;;;;;;;5033791;28;20207;-78
2022/03/28 05:01:10;;;;;;;13.73;9.43;;;;;;;;;;5027434;28;20198;-78
2022/03/28 05:03:37;;;;;;;15.77;11.20;;;;;;;;;;5032763;28;20235;-78
2022/03/28 05:06:05;;;;;;;16.67;10.82;;;;;;;;;;5034455;28;20199;-78
2022/03/28 05:08:32;;;;;;;15.63;10.45;;;;;;;;;;5023458;28;20200;-78
2022/03/28 05:10:59;;;;;;;15.50;9.95;;;;;;;;;;5024275;28;20192;-77
2022/03/28 05:13:27;;;;;;;16.83;10.15;;;;;;;;;;5028166;28;20204;-77
2022/03/28 05:15:54;;;;;;;17.98;10.07;;;;;;;;;;5025679;28;20192;-77
2022/03/28 05:18:21;;;;;;;15.43;9.82;;;;;;;;;;5030023;28;20245;-79
2022/03/28 05:20:48;;;;;;;15.60;10.80;;;;;;;;;;5031097;28;20562;-78
2022/03/28 05:23:16;;;;;;;15.07;9.98;;;;;;;;;;5029504;28;20196;-77
2022/03/28 05:25:43;;;;;;;12.25;8.73;;;;;;;;;;5021400;28;20207;-77
2022/03/28 05:28:10;;;;;;;17.27;9.52;;;;;;;;;;5033321;28;20226;-78
2022/03/28 05:30:37;;;;;;;13.95;10.23;;;;;;;;;;5026886;28;20662;-78
2022/03/28 05:33:04;;;;;;;13.35;9.68;;;;;;;;;;5030154;28;20204;-79
2022/03/28 05:35:32;;;;;;;15.35;10.57;;;;;;;;;;5031216;28;20200;-79
2022/03/28 05:37:59;;;;;;;14.23;9.15;;;;;;;;;;5030251;28;20192;-81
2022/03/28 05:40:28;;;;;;;15.70;10.40;;;;;;;;;;5025307;28;20231;-81
2022/03/28 05:42:55;;;;;;;12.52;9.35;;;;;;;;;;5031944;28;20285;-80
2022/03/28 05:45:22;;;;;;;13.75;8.63;;;;;;;;;;5025261;28;20219;-78
2022/03/28 05:47:49;;;;;;;19.08;10.52;;;;;;;;;;5028114;28;20669;-79
2022/03/28 05:50:16;;;;;;;15.40;9.57;;;;;;;;;;5031689;28;20206;-79
2022/03/28 05:52:43;;;;;;;13.68;9.20;;;;;;;;;;5029800;28;20203;-80
2022/03/28 05:55:11;;;;;;;16.77;10.55;;;;;;;;;;5021246;28;20204;-79
2022/03/28 05:57:40;;;;;;;14.55;10.02;;;;;;;;;;5031727;28;20716;-78
2022/03/28 06:00:09;;;;;;;16.52;11.73;;;;;;;;;;5030203;28;20204;-79
2022/03/28 06:02:36;;;;;;;19.45;10.73;;;;;;;;;;5026511;28;20253;-78
2022/03/28 06:05:05;;;;;;;15.25;11.50;;;;;;;;;;5032439;28;20216;-78
2022/03/28 06:07:32;;;;;;;17.90;10.65;;;;;;;;;;5015193;28;20197;-77
2022/03/28 06:09:59;;;;;;;17.42;10.20;;;;;;;;;;5027331;28;20204;-77
2022/03/28 06:12:27;;;;;;;15.50;11.60;;;;;;;;;;5030508;28;20192;-79
2022/03/28 06:14:55;;;;;;;19.38;11.43;;;;;;;;;;5024132;28;20196;-77
2022/03/28 06:17:22;;;;;;;19.88;11.45;;;;;;;;;;5030985;28;20211;-78
2022/03/28 06:19:49;;;;;;;26.38;12.07;;;;;;;;;;5018021;28;20286;-77
2022/03/28 06:22:16;;;;;;;22.08;12.25;;;;;;;;;;5032666;28;20252;-78
2022/03/28 06:24:44;;;;;;;18.60;11.35;;;;;;;;;;5022602;28;20220;-78
2022/03/28 06:27:11;;;;;;;16.13;10.65;;;;;;;;;;5028136;28;20571;-79
2022/03/28 06:29:38;;;;;;;16.02;9.85;;;;;;;;;;5029664;28;20211;-78
2022/03/28 06:32:07;;;;;;;14.15;9.55;;;;;;;;;;5022646;28;20188;-79
2022/03/28 06:34:34;;;;;;;21.40;10.15;;;;;;;;;;5030729;28;20203;-79
2022/03/28 06:37:01;;;;;;;16.63;10.70;;;;;;;;;;5024143;28;20203;-79
2022/03/28 06:39:28;;;;;;;18.20;11.27;;;;;;;;;;5027308;28;20275;-79
2022/03/28 06:41:55;;;;;;;18.48;11.73;;;;;;;;;;5030987;28;20535;-78
2022/03/28 06:44:22;;;;;;;15.60;11.50;;;;;;;;;;5031048;28;20773;-79
2022/03/28 06:46:49;;;;;;;15.90;12.00;;;;;;;;;;5021103;28;20199;-79
2022/03/28 06:49:18;;;;;;;13.50;9.02;;;;;;;;;;5027339;28;20196;-78
2022/03/28 06:51:46;;;;;;;15.07;10.23;;;;;;;;;;5024392;28;20651;-78
2022/03/28 06:54:14;;;;;;;19.35;12.70;;;;;;;;;;5030305;28;20199;-79
2022/03/28 06:56:45;;;;;;;18.98;11.88;;;;;;;;;;5029078;28;20195;-78
2022/03/28 06:59:12;;;;;;;19.20;11.85;;;;;;;;;;5025712;28;20200;-77
2022/03/28 07:01:41;;;;;;;15.10;9.82;;;;;;;;;;5025299;28;20196;-77
2022/03/28 07:04:10;;;;;;;14.77;10.98;;;;;;;;;;5026991;28;20543;-77
2022/03/28 07:06:38;;;;;;;14.85;10.10;;;;;;;;;;5028817;28;20195;-76
2022/03/28 07:09:06;;;;;;;14.52;11.52;;;;;;;;;;5025144;28;20225;-78
2022/03/28 07:11:33;;;;;;;15.75;11.38;;;;;;;;;;5025358;28;20222;-78
2022/03/28 07:14:00;;;;;;;15.05;11.20;;;;;;;;;;5028100;28;20201;-78
2022/03/28 07:16:27;;;;;;;15.35;9.93;;;;;;;;;;5024614;28;20202;-77
2022/03/28 07:18:54;;;;;;;16.55;11.02;;;;;;;;;;5023170;28;20227;-77
2022/03/28 07:21:21;;;;;;;14.82;12.15;;;;;;;;;;5028728;28;20246;-78
2022/03/28 07:23:49;;;;;;;24.48;11.40;;;;;;;;;;5026085;28;20219;-78
2022/03/28 07:26:16;;;;;;;14.05;10.30;;;;;;;;;;5018856;28;20230;-77
2022/03/28 07:28:43;;;;;;;15.27;11.02;;;;;;;;;;5029634;28;20203;-77
2022/03/28 07:31:11;;;;;;;15.35;11.02;;;;;;;;;;5023714;28;20192;-77
2022/03/28 07:33:39;;;;;;;18.20;10.85;;;;;;;;;;5026377;28;20200;-76
2022/03/28 07:36:07;;;;;;;15.32;10.32;;;;;;;;;;5026154;28;20195;-76
2022/03/28 07:38:35;;;;;;;17.02;10.45;;;;;;;;;;5017972;28;20207;-77
2022/03/28 07:41:04;;;;;;;13.90;9.93;;;;;;;;;;5025000;28;20618;-76
2022/03/28 07:43:32;;;;;;;14.90;9.68;;;;;;;;;;5028008;28;20566;-76
2022/03/28 07:45:59;;;;;;;14.77;10.27;;;;;;;;;;5025935;28;20405;-76
2022/03/28 07:48:27;;;;;;;15.07;10.00;;;;;;;;;;5021975;28;20650;-77
2022/03/28 07:50:55;;;;;;;12.68;9.40;;;;;;;;;;5022572;28;20226;-78
2022/03/28 07:53:23;;;;;;;14.20;9.57;;;;;;;;;;5023020;28;20195;-77
2022/03/28 07:55:50;;;;;;;14.18;9.65;;;;;;;;;;5030583;28;20198;-78
2022/03/28 07:58:18;;;;;;;15.82;10.68;;;;;;;;;;5026005;28;20191;-79
2022/03/28 08:00:47;;;;;;;17.58;10.45;;;;;;;;;;5021559;28;20207;-78
2022/03/28 08:03:14;;;;;;;15.15;10.25;;;;;;;;;;5022661;28;20192;-78
2022/03/28 08:05:41;;;;;;;15.65;10.40;;;;;;;;;;5029427;28;20222;-78
2022/03/28 08:08:08;;;;;;;13.48;9.43;;;;;;;;;;5026402;28;20501;-84
2022/03/28 08:10:36;;;;;;;11.10;9.02;;;;;;;;;;5027825;28;20203;-84
2022/03/28 08:13:03;;;;;;;13.73;9.65;;;;;;;;;;5027818;28;20583;-85
2022/03/28 08:15:33;;;;;;;15.70;11.05;;;;;;;;;;5023989;28;20196;-83
2022/03/28 08:18:01;;;;;;;19.30;11.05;;;;;;;;;;5027756;28;20203;-85
2022/03/28 08:20:28;;;;;;;12.45;8.35;;;;;;;;;;5029851;28;20662;-85
2022/03/28 08:22:55;;;;;;;13.20;8.85;;;;;;;;;;5029750;28;20200;-80
2022/03/28 08:25:23;;;;;;;16.20;11.23;;;;;;;;;;5017052;28;20511;-79
2022/03/28 08:27:50;;;;;;;12.65;9.68;;;;;;;;;;5012547;28;20188;-79
2022/03/28 08:30:18;;;;;;;13.63;10.45;;;;;;;;;;5019641;28;20199;-78
2022/03/28 08:32:47;;;;;;;12.30;8.48;;;;;;;;;;5030570;28;20196;-78
2022/03/28 08:35:14;;;;;;;15.60;11.35;;;;;;;;;;5028904;28;20196;-79
2022/03/28 08:37:41;;;;;;;15.63;10.68;;;;;;;;;;5031623;28;20546;-79
2022/03/28 08:40:08;;;;;;;13.88;8.23;;;;;;;;;;5029432;28;20220;-79
2022/03/28 08:42:36;;;;;;;12.90;8.30;;;;;;;;;;5026476;28;20192;-78
2022/03/28 08:45:03;;;;;;;14.50;9.07;;;;;;;;;;5027619;28;20220;-79
2022/03/28 08:47:32;;;;;;;10.70;8.55;;;;;;;;;;5027954;28;20617;-79
2022/03/28 08:50:00;;;;;;;13.40;8.88;;;;;;;;;;5029818;28;20293;-79
2022/03/28 08:52:27;;;;;;;13.25;9.80;;;;;;;;;;5033715;28;20609;-78
2022/03/28 08:54:55;;;;;;;13.43;9.15;;;;;;;;;;5025470;28;20196;-79
2022/03/28 08:57:22;;;;;;;12.23;8.75;;;;;;;;;;5027199;28;20207;-79
2022/03/28 08:59:49;;;;;;;12.35;9.15;;;;;;;;;;5024346;28;20200;-79
2022/03/28 09:02:32;;;;;;;15.57;10.00;;;;;;;;;;5028762;28;20544;-79
2022/03/28 09:05:00;;;;;;;10.30;8.30;;;;;;;;;;5030985;28;20251;-79
2022/03/28 09:07:28;;;;;;;11.73;8.18;;;;;;;;;;5032290;28;20242;-79
2022/03/28 09:09:58;;;;;;;10.10;7.68;;;;;;;;;;5026758;28;20195;-79
2022/03/28 09:12:25;;;;;;;13.80;9.57;;;;;;;;;;5023415;28;20191;-79
2022/03/28 09:14:57;;;;;;;14.70;8.63;;;;;;;;;;5026835;28;20208;-78
2022/03/28 09:17:24;;;;;;;12.32;8.27;;;;;;;;;;5030024;28;20282;-78
2022/03/28 09:19:53;;;;;;;11.70;8.68;;;;;;;;;;5031544;28;20207;-79
2022/03/28 09:22:23;;;;;;;10.85;7.80;;;;;;;;;;5030636;28;20291;-78
2022/03/28 09:24:50;;;;;;;10.63;7.93;;;;;;;;;;5025243;28;20219;-77
2022/03/28 09:27:18;;;;;;;10.70;7.82;;;;;;;;;;5029774;28;20257;-78
2022/03/28 09:30:02;;;;;;;15.98;10.30;;;;;;;;;;5028439;28;20833;-78
2022/03/28 09:32:30;;;;;;;13.18;9.88;;;;;;;;;;5034585;28;20218;-78
2022/03/28 09:35:09;;;;;;;15.45;10.98;;;;;;;;;;5032569;28;20571;-81
2022/03/28 09:37:55;;;;;;;14.32;10.85;;;;;;;;;;5022263;28;20519;-76
2022/03/28 09:40:24;;;;;;;12.98;9.50;;;;;;;;;;5030560;28;20294;-75
2022/03/28 09:42:51;;;;;;;17.65;12.60;;;;;;;;;;5028407;28;20223;-76
2022/03/28 09:45:22;;;;;;;13.15;9.15;;;;;;;;;;5019529;28;20219;-78
2022/03/28 09:47:59;;;;;;;17.48;11.15;;;;;;;;;;5027162;28;20199;-80
2022/03/28 09:50:33;;;;;;;12.15;10.05;;;;;;;;;;5028482;28;20649;-80
2022/03/28 09:53:19;;;;;;;19.27;11.65;;;;;;;;;;5021028;28;20211;-79
2022/03/28 09:55:47;;;;;;;12.18;9.73;;;;;;;;;;5028422;28;20203;-79
2022/03/28 09:58:31;;;;;;;12.20;9.73;;;;;;;;;;5027683;28;20650;-75
2022/03/28 10:00:58;;;;;;;12.30;8.77;;;;;;;;;;5023990;28;20650;-75
2022/03/28 10:03:26;;;;;;;18.42;12.15;;;;;;;;;;5029780;28;20203;-76
2022/03/28 10:05:54;;;;;;;19.48;10.05;;;;;;;;;;5026088;28;20219;-77
2022/03/28 10:08:23;;;;;;;19.08;10.45;;;;;;;;;;5020058;28;20253;-74
2022/03/28 10:10:50;;;;;;;13.23;10.70;;;;;;;;;;5017782;28;20681;-75
2022/03/28 10:13:18;;;;;;;18.77;11.45;;;;;;;;;;5027589;28;20200;-74
2022/03/28 10:15:45;;;;;;;15.95;10.95;;;;;;;;;;5023552;28;20269;-74
2022/03/28 10:18:12;;;;;;;14.50;10.02;;;;;;;;;;5028978;28;20666;-75
2022/03/28 10:20:42;;;;;;;12.70;9.00;;;;;;;;;;5028303;28;20210;-75
2022/03/28 10:23:10;;;;;;;13.25;9.73;;;;;;;;;;5023210;28;20219;-75
2022/03/28 10:25:40;;;;;;;19.17;11.07;;;;;;;;;;5028272;28;20223;-75
2022/03/28 10:28:07;;;;;;;14.40;10.80;;;;;;;;;;5028252;28;20219;-75
2022/03/28 10:30:34;;;;;;;17.50;11.93;;;;;;;;;;5023173;28;20206;-75
2022/03/28 10:33:08;;;;;;;15.85;10.95;;;;;;;;;;5023004;28;20631;-74
2022/03/28 10:35:35;;;;;;;15.52;9.90;;;;;;;;;;5021490;28;20207;-75
2022/03/28 10:38:15;;;;;;;18.63;12.70;;;;;;;;;;5027377;28;20210;-75
2022/03/28 10:40:54;;;;;;;16.35;11.93;;;;;;;;;;5023439;28;20206;-75
2022/03/28 10:43:21;;;;;;;16.73;10.75;;;;;;;;;;5019586;28;20204;-76
2022/03/28 10:45:50;;;;;;;15.70;10.88;;;;;;;;;;5025153;28;20234;-75
2022/03/28 10:48:18;;;;;;;16.52;11.48;;;;;;;;;;5027047;28;20273;-74
2022/03/28 10:50:49;;;;;;;13.38;9.60;;;;;;;;;;5027182;28;20192;-76
2022/03/28 10:53:16;;;;;;;13.70;9.70;;;;;;;;;;5028490;28;20207;-76
2022/03/28 10:55:48;;;;;;;19.83;12.55;;;;;;;;;;5021991;28;20206;-75
2022/03/28 10:58:17;;;;;;;14.60;10.68;;;;;;;;;;5025360;28;20200;-75
2022/03/28 11:01:03;;;;;;;14.70;9.45;;;;;;;;;;5021804;28;20555;-75
2022/03/28 11:03:37;;;;;;;12.77;9.45;;;;;;;;;;5022607;28;20203;-75
2022/03/28 11:06:04;;;;;;;19.23;11.32;;;;;;;;;;5025247;28;20219;-77
2022/03/28 11:08:32;;;;;;;18.63;11.63;;;;;;;;;;5023609;28;20204;-75
2022/03/28 11:11:18;;;;;;;18.33;12.70;;;;;;;;;;5019091;28;20232;-79
2022/03/28 11:13:57;;;;;;;16.63;10.77;;;;;;;;;;5019122;28;20215;-77
2022/03/28 11:16:40;;;;;;;17.63;11.45;;;;;;;;;;5023687;28;20210;-78
2022/03/28 11:19:23;;;;;;;16.17;11.25;;;;;;;;;;5025989;28;20203;-77
2022/03/28 11:21:58;;;;;;;14.55;9.00;;;;;;;;;;5021685;28;20677;-76
2022/03/28 11:24:42;;;;;;;15.80;10.48;;;;;;;;;;5023590;28;20216;-76
2022/03/28 11:27:09;;;;;;;16.45;11.38;;;;;;;;;;5027533;28;20230;-77
2022/03/28 11:29:38;;;;;;;18.63;11.60;;;;;;;;;;5027443;28;20203;-76
2022/03/28 11:32:06;;;;;;;16.40;11.73;;;;;;;;;;5025522;28;21786;-77
2022/03/28 11:34:33;;;;;;;17.30;11.93;;;;;;;;;;5027244;28;20203;-77
2022/03/28 11:37:00;;;;;;;14.27;10.10;;;;;;;;;;5025141;28;20253;-76
2022/03/28 11:39:27;;;;;;;16.83;11.32;;;;;;;;;;5025028;28;20200;-77
2022/03/28 11:41:55;;;;;;;16.38;10.85;;;;;;;;;;5026078;28;20294;-76
2022/03/28 11:44:22;;;;;;;16.48;11.35;;;;;;;;;;5028419;28;20295;-77
2022/03/28 11:46:57;;;;;;;14.02;9.95;;;;;;;;;;5024263;28;20590;-76
2022/03/28 11:49:24;;;;;;;18.27;12.98;;;;;;;;;;5028240;28;20525;-77
2022/03/28 11:51:51;;;;;;;17.63;11.60;;;;;;;;;;5026711;28;20203;-76
2022/03/28 11:54:19;;;;;;;18.40;11.52;;;;;;;;;;5024704;28;20211;-78
2022/03/28 11:59:40;;;;;;;18.52;11.73;;;;;;;;;;4986736;28;20268;-77
2022/03/28 12:02:08;;;;;;;13.32;9.48;;;;;;;;;;5025402;28;20188;-77
2022/03/28 12:04:36;;;;;;;17.08;10.57;;;;;;;;;;5026039;28;20210;-77
2022/03/28 12:07:03;;;;;;;16.15;12.18;;;;;;;;;;5027356;28;20226;-75
2022/03/28 12:09:30;;;;;;;14.98;11.10;;;;;;;;;;5027272;28;20199;-76
2022/03/28 12:11:58;;;;;;;16.77;11.45;;;;;;;;;;5028523;28;20199;-79
2022/03/28 12:14:25;;;;;;;19.45;11.45;;;;;;;;;;5024140;28;20204;-76
2022/03/28 12:16:53;;;;;;;17.48;10.93;;;;;;;;;;5025142;28;20207;-77
2022/03/28 12:19:23;;;;;;;16.83;11.82;;;;;;;;;;5030637;28;20204;-76
2022/03/28 12:21:50;;;;;;;17.13;10.75;;;;;;;;;;5026636;28;20195;-77
2022/03/28 12:24:17;;;;;;;15.90;11.57;;;;;;;;;;5025031;28;20226;-77
2022/03/28 12:26:44;;;;;;;14.00;11.25;;;;;;;;;;5030296;28;20219;-76
2022/03/28 12:29:12;;;;;;;17.45;11.52;;;;;;;;;;5013832;28;20192;-79
2022/03/28 12:31:39;;;;;;;17.13;11.60;;;;;;;;;;5028562;28;20231;-74
2022/03/28 12:34:06;;;;;;;14.07;10.35;;;;;;;;;;5028970;28;20199;-75
2022/03/28 12:36:35;;;;;;;16.13;10.63;;;;;;;;;;5028858;28;20204;-75
2022/03/28 12:39:06;;;;;;;14.52;10.00;;;;;;;;;;5029929;28;20210;-74
2022/03/28 12:41:40;;;;;;;17.27;11.40;;;;;;;;;;5025333;28;20200;-73
2022/03/28 12:44:07;;;;;;;15.02;10.85;;;;;;;;;;5026896;28;20230;-74
2022/03/28 12:46:34;;;;;;;14.20;10.90;;;;;;;;;;5027797;28;20227;-74
2022/03/28 12:49:08;;;;;;;26.10;16.95;;;;;;;;;;5029145;28;20199;-76
2022/03/28 12:51:38;;;;;;;23.30;14.93;;;;;;;;;;5028304;28;20191;-74
2022/03/28 12:54:05;;;;;;;19.63;13.57;;;;;;;;;;5023999;28;20612;-75
2022/03/28 12:56:42;;;;;;;17.92;12.65;;;;;;;;;;5029577;28;20211;-75
2022/03/28 12:59:10;;;;;;;19.30;13.52;;;;;;;;;;5028977;28;20227;-75
2022/03/28 13:01:37;;;;;;;19.42;12.00;;;;;;;;;;5011997;28;20247;-75
2022/03/28 13:04:11;;;;;;;22.95;13.70;;;;;;;;;;5027978;28;20230;-75
2022/03/28 13:06:43;;;;;;;20.40;13.13;;;;;;;;;;5026055;28;20226;-75
2022/03/28 13:09:10;;;;;;;20.90;13.75;;;;;;;;;;5026524;28;20212;-75
2022/03/28 13:11:37;;;;;;;18.10;12.82;;;;;;;;;;5023014;28;20192;-76
2022/03/28 13:14:06;;;;;;;21.63;14.18;;;;;;;;;;5028626;28;20202;-76
2022/03/28 13:16:34;;;;;;;21.48;13.73;;;;;;;;;;5025945;28;20629;-76
2022/03/28 13:19:02;;;;;;;19.30;13.40;;;;;;;;;;5028687;28;20211;-75
2022/03/28 13:21:31;;;;;;;19.52;12.57;;;;;;;;;;5028310;28;20219;-75
2022/03/28 13:24:06;;;;;;;17.75;12.50;;;;;;;;;;5029648;28;20226;-75
2022/03/28 13:26:41;;;;;;;16.63;10.73;;;;;;;;;;5026173;28;20230;-76
2022/03/28 13:29:18;;;;;;;15.25;12.07;;;;;;;;;;5030015;28;20191;-76
2022/03/28 13:31:45;;;;;;;16.45;11.27;;;;;;;;;;5026760;28;20199;-77
2022/03/28 13:34:12;;;;;;;15.88;11.20;;;;;;;;;;5021527;28;20203;-76
2022/03/28 13:36:40;;;;;;;20.25;13.63;;;;;;;;;;5027978;28;20199;-76
2022/03/28 13:39:08;;;;;;;16.75;11.65;;;;;;;;;;5021973;28;20223;-77
2022/03/28 13:41:35;;;;;;;19.90;11.25;;;;;;;;;;5019425;28;20606;-77
2022/03/28 13:44:03;;;;;;;17.52;11.77;;;;;;;;;;5026382;28;20202;-77
2022/03/28 13:46:30;;;;;;;14.65;10.68;;;;;;;;;;5025966;28;20218;-76
2022/03/28 13:48:58;;;;;;;16.13;11.45;;;;;;;;;;5026684;28;20650;-76
2022/03/28 13:51:26;;;;;;;17.88;11.60;;;;;;;;;;5018652;28;20241;-76
2022/03/28 13:53:53;;;;;;;23.45;11.60;;;;;;;;;;5027303;28;20644;-78
2022/03/28 13:56:22;;;;;;;19.42;12.75;;;;;;;;;;5025393;28;20729;-75
2022/03/28 13:58:49;;;;;;;17.15;12.27;;;;;;;;;;5028999;28;20219;-74
2022/03/28 14:01:16;;;;;;;15.52;10.75;;;;;;;;;;5024428;28;20203;-75
2022/03/28 14:03:44;;;;;;;16.73;11.10;;;;;;;;;;5026790;28;20203;-75
2022/03/28 14:06:11;;;;;;;17.55;11.32;;;;;;;;;;5024890;28;20199;-75
2022/03/28 14:08:39;;;;;;;17.42;11.60;;;;;;;;;;5023876;28;20258;-76
2022/03/28 14:11:08;;;;;;;16.80;11.95;;;;;;;;;;5026799;28;20194;-76
2022/03/28 14:13:36;;;;;;;16.02;11.93;;;;;;;;;;5026826;28;20203;-76
2022/03/28 14:16:03;;;;;;;17.08;11.38;;;;;;;;;;5025136;28;20201;-80
2022/03/28 14:18:30;;;;;;;16.58;12.23;;;;;;;;;;5026735;28;20340;-76
2022/03/28 14:20:57;;;;;;;16.33;10.88;;;;;;;;;;5027415;28;20207;-76
2022/03/28 14:23:25;;;;;;;13.07;9.38;;;;;;;;;;5018724;28;20202;-79
2022/03/28 14:25:52;;;;;;;14.10;10.85;;;;;;;;;;5028481;28;20204;-76
2022/03/28 14:28:19;;;;;;;17.33;13.23;;;;;;;;;;5025737;28;21789;-76
2022/03/28 14:30:47;;;;;;;26.85;16.73;;;;;;;;;;5022850;28;20200;-76
2022/03/28 14:33:16;;;;;;;23.25;14.48;;;;;;;;;;5029006;28;20485;-76
2022/03/28 14:35:43;;;;;;;19.42;14.00;;;;;;;;;;5028549;28;20360;-76